sensor_id;sensor_type;location;lat;lon;timestamp;pressure;altitude;pressure_sealevel;temperature
77414;BMP280;66486;49.992;19.164;2023-05-21T00:02:26;99333.66;;;15.41
77414;BMP280;66486;49.992;19.164;2023-05-21T00:04:54;99329.97;;;15.35
77414;BMP280;66486;49.992;19.164;2023-05-21T00:07:20;99336.16;;;15.48
77414;BMP280;66486;49.992;19.164;2023-05-21T00:09:47;99338.53;;;15.46
77414;BMP280;66486;49.992;19.164;2023-05-21T00:12:13;99341.25;;;15.59
77414;BMP280;66486;49.992;19.164;2023-05-21T00:14:39;99341.38;;;15.55
77414;BMP280;66486;49.992;19.164;2023-05-21T00:17:05;99330.19;;;15.66
77414;BMP280;66486;49.992;19.164;2023-05-21T00:19:31;99324.44;;;15.64
77414;BMP280;66486;49.992;19.164;2023-05-21T00:21:58;99332.53;;;15.76
77414;BMP280;66486;49.992;19.164;2023-05-21T00:24:27;99332.00;;;15.69
77414;BMP280;66486;49.992;19.164;2023-05-21T00:26:54;99335.19;;;15.67
77414;BMP280;66486;49.992;19.164;2023-05-21T00:29:21;99340.94;;;15.57
77414;BMP280;66486;49.992;19.164;2023-05-21T00:31:47;99322.69;;;15.57
77414;BMP280;66486;49.992;19.164;2023-05-21T00:34:14;99321.72;;;15.64
77414;BMP280;66486;49.992;19.164;2023-05-21T00:36:41;99331.56;;;15.58
77414;BMP280;66486;49.992;19.164;2023-05-21T00:39:11;99327.22;;;15.85
77414;BMP280;66486;49.992;19.164;2023-05-21T00:41:37;99323.63;;;15.88
77414;BMP280;66486;49.992;19.164;2023-05-21T00:44:08;99325.72;;;15.72
77414;BMP280;66486;49.992;19.164;2023-05-21T00:46:34;99328.41;;;15.84
77414;BMP280;66486;49.992;19.164;2023-05-21T00:49:00;99320.78;;;15.92
77414;BMP280;66486;49.992;19.164;2023-05-21T00:51:26;99330.16;;;16.12
77414;BMP280;66486;49.992;19.164;2023-05-21T00:53:55;99328.41;;;15.84
77414;BMP280;66486;49.992;19.164;2023-05-21T00:56:23;99327.63;;;15.96
77414;BMP280;66486;49.992;19.164;2023-05-21T00:58:55;99328.84;;;15.83
77414;BMP280;66486;49.992;19.164;2023-05-21T01:01:22;99333.78;;;15.50
77414;BMP280;66486;49.992;19.164;2023-05-21T01:03:53;99316.31;;;15.51
77414;BMP280;66486;49.992;19.164;2023-05-21T01:06:22;99325.50;;;15.53
77414;BMP280;66486;49.992;19.164;2023-05-21T01:08:48;99320.00;;;15.44
77414;BMP280;66486;49.992;19.164;2023-05-21T01:11:16;99317.09;;;15.26
77414;BMP280;66486;49.992;19.164;2023-05-21T01:13:43;99315.47;;;15.29
77414;BMP280;66486;49.992;19.164;2023-05-21T01:16:11;99321.31;;;15.27
77414;BMP280;66486;49.992;19.164;2023-05-21T01:18:38;99308.19;;;15.26
77414;BMP280;66486;49.992;19.164;2023-05-21T01:21:04;99315.47;;;15.29
77414;BMP280;66486;49.992;19.164;2023-05-21T01:23:32;99302.75;;;15.26
77414;BMP280;66486;49.992;19.164;2023-05-21T01:25:58;99308.41;;;15.19
77414;BMP280;66486;49.992;19.164;2023-05-21T01:28:24;99302.41;;;15.24
77414;BMP280;66486;49.992;19.164;2023-05-21T01:30:50;99305.69;;;15.19
77414;BMP280;66486;49.992;19.164;2023-05-21T01:36:01;99302.53;;;15.45
77414;BMP280;66486;49.992;19.164;2023-05-21T01:38:36;99297.97;;;15.42
77414;BMP280;66486;49.992;19.164;2023-05-21T01:41:10;99301.38;;;15.34
77414;BMP280;66486;49.992;19.164;2023-05-21T01:43:38;99305.03;;;15.52
77414;BMP280;66486;49.992;19.164;2023-05-21T01:46:06;99296.13;;;15.52
77414;BMP280;66486;49.992;19.164;2023-05-21T01:48:34;99292.78;;;15.48
77414;BMP280;66486;49.992;19.164;2023-05-21T01:51:03;99297.00;;;15.62
77414;BMP280;66486;49.992;19.164;2023-05-21T01:53:30;99299.44;;;15.81
77414;BMP280;66486;49.992;19.164;2023-05-21T01:55:56;99290.13;;;15.70
77414;BMP280;66486;49.992;19.164;2023-05-21T01:58:22;99285.59;;;15.54
77414;BMP280;66486;49.992;19.164;2023-05-21T02:00:49;99286.69;;;15.44
77414;BMP280;66486;49.992;19.164;2023-05-21T02:03:19;99290.25;;;15.66
77414;BMP280;66486;49.992;19.164;2023-05-21T02:05:45;99296.53;;;15.63
77414;BMP280;66486;49.992;19.164;2023-05-21T02:08:12;99291.66;;;15.71
77414;BMP280;66486;49.992;19.164;2023-05-21T02:10:39;99289.97;;;15.39
77414;BMP280;66486;49.992;19.164;2023-05-21T02:13:05;99286.00;;;15.65
77414;BMP280;66486;49.992;19.164;2023-05-21T02:15:31;99274.91;;;15.38
77414;BMP280;66486;49.992;19.164;2023-05-21T02:17:59;99289.22;;;15.26
77414;BMP280;66486;49.992;19.164;2023-05-21T02:20:25;99281.72;;;15.30
77414;BMP280;66486;49.992;19.164;2023-05-21T02:22:51;99271.41;;;15.25
77414;BMP280;66486;49.992;19.164;2023-05-21T02:25:18;99285.41;;;15.11
77414;BMP280;66486;49.992;19.164;2023-05-21T02:27:46;99270.44;;;15.19
77414;BMP280;66486;49.992;19.164;2023-05-21T02:30:14;99269.56;;;15.34
77414;BMP280;66486;49.992;19.164;2023-05-21T02:32:41;99267.19;;;15.36
77414;BMP280;66486;49.992;19.164;2023-05-21T02:35:10;99267.94;;;15.24
77414;BMP280;66486;49.992;19.164;2023-05-21T02:37:36;99265.25;;;15.12
77414;BMP280;66486;49.992;19.164;2023-05-21T02:40:03;99275.44;;;15.08
77414;BMP280;66486;49.992;19.164;2023-05-21T02:42:32;99267.06;;;14.90
77414;BMP280;66486;49.992;19.164;2023-05-21T02:44:59;99263.91;;;14.91
77414;BMP280;66486;49.992;19.164;2023-05-21T02:47:25;99264.88;;;14.85
77414;BMP280;66486;49.992;19.164;2023-05-21T02:49:51;99260.78;;;14.93
77414;BMP280;66486;49.992;19.164;2023-05-21T02:52:18;99261.13;;;14.82
77414;BMP280;66486;49.992;19.164;2023-05-21T02:54:45;99260.44;;;14.91
77414;BMP280;66486;49.992;19.164;2023-05-21T02:57:11;99257.75;;;14.78
77414;BMP280;66486;49.992;19.164;2023-05-21T02:59:38;99253.59;;;14.73
77414;BMP280;66486;49.992;19.164;2023-05-21T03:02:04;99254.50;;;14.70
77414;BMP280;66486;49.992;19.164;2023-05-21T03:04:30;99256.78;;;14.72
77414;BMP280;66486;49.992;19.164;2023-05-21T03:06:58;99254.69;;;14.63
77414;BMP280;66486;49.992;19.164;2023-05-21T03:09:27;99251.34;;;14.59
77414;BMP280;66486;49.992;19.164;2023-05-21T03:11:52;99236.81;;;14.53
77414;BMP280;66486;49.992;19.164;2023-05-21T03:14:18;99262.28;;;14.68
77414;BMP280;66486;49.992;19.164;2023-05-21T03:16:44;99259.25;;;14.66
77414;BMP280;66486;49.992;19.164;2023-05-21T03:19:12;99271.34;;;14.62
77414;BMP280;66486;49.992;19.164;2023-05-21T03:21:38;99257.41;;;14.76
77414;BMP280;66486;49.992;19.164;2023-05-21T03:24:04;99253.28;;;14.84
77414;BMP280;66486;49.992;19.164;2023-05-21T03:26:30;99251.66;;;14.74
77414;BMP280;66486;49.992;19.164;2023-05-21T03:28:57;99251.66;;;14.74
77414;BMP280;66486;49.992;19.164;2023-05-21T03:31:23;99260.47;;;14.78
77414;BMP280;66486;49.992;19.164;2023-05-21T03:33:50;99250.81;;;14.90
77414;BMP280;66486;49.992;19.164;2023-05-21T03:36:17;99243.44;;;14.90
77414;BMP280;66486;49.992;19.164;2023-05-21T03:38:43;99246.41;;;14.83
77414;BMP280;66486;49.992;19.164;2023-05-21T03:41:09;99251.28;;;15.01
77414;BMP280;66486;49.992;19.164;2023-05-21T03:43:35;99242.25;;;15.04
77414;BMP280;66486;49.992;19.164;2023-05-21T03:46:01;99243.56;;;15.12
77414;BMP280;66486;49.992;19.164;2023-05-21T03:48:27;99242.75;;;15.24
77414;BMP280;66486;49.992;19.164;2023-05-21T03:50:53;99244.97;;;15.16
77414;BMP280;66486;49.992;19.164;2023-05-21T03:53:20;99243.66;;;15.08
77414;BMP280;66486;49.992;19.164;2023-05-21T03:55:49;99250.81;;;15.02
77414;BMP280;66486;49.992;19.164;2023-05-21T03:58:21;99251.03;;;15.08
77414;BMP280;66486;49.992;19.164;2023-05-21T04:00:47;99250.38;;;15.04
77414;BMP280;66486;49.992;19.164;2023-05-21T04:03:13;99248.66;;;15.10
77414;BMP280;66486;49.992;19.164;2023-05-21T04:05:41;99251.28;;;15.01
77414;BMP280;66486;49.992;19.164;2023-05-21T04:08:07;99261.13;;;15.07
77414;BMP280;66486;49.992;19.164;2023-05-21T04:10:34;99255.13;;;15.25
77414;BMP280;66486;49.992;19.164;2023-05-21T04:13:00;99243.00;;;15.17
77414;BMP280;66486;49.992;19.164;2023-05-21T04:15:25;99251.25;;;15.26
77414;BMP280;66486;49.992;19.164;2023-05-21T04:17:52;99241.72;;;15.34
77414;BMP280;66486;49.992;19.164;2023-05-21T04:20:19;99242.53;;;15.43
77414;BMP280;66486;49.992;19.164;2023-05-21T04:22:46;99244.31;;;15.37
77414;BMP280;66486;49.992;19.164;2023-05-21T04:25:11;99244.78;;;15.58
77414;BMP280;66486;49.992;19.164;2023-05-21T04:27:38;99244.13;;;15.53
77414;BMP280;66486;49.992;19.164;2023-05-21T04:30:04;99254.03;;;15.47
77414;BMP280;66486;49.992;19.164;2023-05-21T04:32:31;99250.91;;;15.49
77414;BMP280;66486;49.992;19.164;2023-05-21T04:34:57;99255.69;;;15.45
77414;BMP280;66486;49.992;19.164;2023-05-21T04:37:26;99243.31;;;15.44
77414;BMP280;66486;49.992;19.164;2023-05-21T04:39:56;99259.59;;;15.44
77414;BMP280;66486;49.992;19.164;2023-05-21T04:42:22;99244.53;;;15.77
77414;BMP280;66486;49.992;19.164;2023-05-21T04:44:49;99254.47;;;15.93
77414;BMP280;66486;49.992;19.164;2023-05-21T04:47:16;99260.69;;;15.81
77414;BMP280;66486;49.992;19.164;2023-05-21T04:49:43;99259.28;;;15.76
77414;BMP280;66486;49.992;19.164;2023-05-21T04:52:09;99258.28;;;15.83
77414;BMP280;66486;49.992;19.164;2023-05-21T04:54:35;99260.38;;;16.00
77414;BMP280;66486;49.992;19.164;2023-05-21T04:57:05;99255.28;;;16.02
77414;BMP280;66486;49.992;19.164;2023-05-21T04:59:31;99255.47;;;16.08
77414;BMP280;66486;49.992;19.164;2023-05-21T05:01:57;99253.47;;;15.99
77414;BMP280;66486;49.992;19.164;2023-05-21T05:04:23;99254.09;;;16.25
77414;BMP280;66486;49.992;19.164;2023-05-21T05:06:49;99259.16;;;16.36
77414;BMP280;66486;49.992;19.164;2023-05-21T05:09:16;99254.31;;;16.61
77414;BMP280;66486;49.992;19.164;2023-05-21T05:11:42;99264.13;;;16.68
77414;BMP280;66486;49.992;19.164;2023-05-21T05:14:08;99259.06;;;16.79
77414;BMP280;66486;49.992;19.164;2023-05-21T05:16:34;99254.19;;;16.74
77414;BMP280;66486;49.992;19.164;2023-05-21T05:19:00;99260.13;;;16.81
77414;BMP280;66486;49.992;19.164;2023-05-21T05:21:27;99265.25;;;16.79
77414;BMP280;66486;49.992;19.164;2023-05-21T05:23:53;99261.81;;;16.88
77414;BMP280;66486;49.992;19.164;2023-05-21T05:26:19;99265.56;;;16.81
77414;BMP280;66486;49.992;19.164;2023-05-21T05:28:46;99263.81;;;16.87
77414;BMP280;66486;49.992;19.164;2023-05-21T05:31:12;99262.84;;;16.81
77414;BMP280;66486;49.992;19.164;2023-05-21T05:33:38;99260.31;;;16.87
77414;BMP280;66486;49.992;19.164;2023-05-21T05:36:06;99258.53;;;16.93
77414;BMP280;66486;49.992;19.164;2023-05-21T05:38:32;99240.16;;;17.06
77414;BMP280;66486;49.992;19.164;2023-05-21T05:40:59;99247.31;;;17.31
77414;BMP280;66486;49.992;19.164;2023-05-21T05:43:25;99250.63;;;17.44
77414;BMP280;66486;49.992;19.164;2023-05-21T05:45:51;99255.94;;;17.65
77414;BMP280;66486;49.992;19.164;2023-05-21T05:48:17;99248.56;;;17.75
77414;BMP280;66486;49.992;19.164;2023-05-21T05:50:44;99245.81;;;17.84
77414;BMP280;66486;49.992;19.164;2023-05-21T05:53:10;99251.34;;;18.35
77414;BMP280;66486;49.992;19.164;2023-05-21T05:55:38;99258.22;;;17.94
77414;BMP280;66486;49.992;19.164;2023-05-21T05:58:05;99254.88;;;18.08
77414;BMP280;66486;49.992;19.164;2023-05-21T06:00:31;99253.34;;;18.25
77414;BMP280;66486;49.992;19.164;2023-05-21T06:02:56;99248.94;;;18.37
77414;BMP280;66486;49.992;19.164;2023-05-21T06:05:23;99253.56;;;18.45
77414;BMP280;66486;49.992;19.164;2023-05-21T06:07:48;99235.19;;;18.64
77414;BMP280;66486;49.992;19.164;2023-05-21T06:10:15;99247.41;;;18.36
77414;BMP280;66486;49.992;19.164;2023-05-21T06:12:41;99239.84;;;18.31
77414;BMP280;66486;49.992;19.164;2023-05-21T06:15:07;99241.00;;;18.48
77414;BMP280;66486;49.992;19.164;2023-05-21T06:17:33;99253.72;;;18.51
77414;BMP280;66486;49.992;19.164;2023-05-21T06:19:59;99249.81;;;18.85
77414;BMP280;66486;49.992;19.164;2023-05-21T06:22:25;99243.97;;;18.68
77414;BMP280;66486;49.992;19.164;2023-05-21T06:24:52;99244.53;;;18.81
77414;BMP280;66486;49.992;19.164;2023-05-21T06:27:17;99238.97;;;18.99
77414;BMP280;66486;49.992;19.164;2023-05-21T06:29:44;99232.06;;;19.13
77414;BMP280;66486;49.992;19.164;2023-05-21T06:32:09;99240.97;;;19.61
77414;BMP280;66486;49.992;19.164;2023-05-21T06:34:35;99226.09;;;19.76
77414;BMP280;66486;49.992;19.164;2023-05-21T06:37:01;99230.81;;;19.61
77414;BMP280;66486;49.992;19.164;2023-05-21T06:39:28;99237.25;;;20.02
77414;BMP280;66486;49.992;19.164;2023-05-21T06:41:53;99232.81;;;20.33
77414;BMP280;66486;49.992;19.164;2023-05-21T06:44:20;99230.03;;;20.48
77414;BMP280;66486;49.992;19.164;2023-05-21T06:46:46;99225.66;;;20.71
77414;BMP280;66486;49.992;19.164;2023-05-21T06:49:12;99235.69;;;20.59
77414;BMP280;66486;49.992;19.164;2023-05-21T06:51:39;99234.88;;;20.73
77414;BMP280;66486;49.992;19.164;2023-05-21T06:54:05;99226.34;;;21.06
77414;BMP280;66486;49.992;19.164;2023-05-21T06:56:31;99224.78;;;21.19
77414;BMP280;66486;49.992;19.164;2023-05-21T06:58:57;99220.38;;;21.73
77414;BMP280;66486;49.992;19.164;2023-05-21T07:01:23;99230.28;;;22.27
77414;BMP280;66486;49.992;19.164;2023-05-21T07:03:49;99220.91;;;22.08
77414;BMP280;66486;49.992;19.164;2023-05-21T07:06:15;99211.50;;;21.58
77414;BMP280;66486;49.992;19.164;2023-05-21T07:08:41;99221.94;;;21.80
77414;BMP280;66486;49.992;19.164;2023-05-21T07:11:07;99211.44;;;22.41
77414;BMP280;66486;49.992;19.164;2023-05-21T07:13:34;99215.28;;;22.65
77414;BMP280;66486;49.992;19.164;2023-05-21T07:16:00;99213.34;;;23.30
77414;BMP280;66486;49.992;19.164;2023-05-21T07:18:26;99219.72;;;22.99
77414;BMP280;66486;49.992;19.164;2023-05-21T07:20:52;99215.06;;;22.69
77414;BMP280;66486;49.992;19.164;2023-05-21T07:23:18;99212.03;;;22.56
77414;BMP280;66486;49.992;19.164;2023-05-21T07:25:46;99217.53;;;22.61
77414;BMP280;66486;49.992;19.164;2023-05-21T07:28:12;99215.44;;;22.98
77414;BMP280;66486;49.992;19.164;2023-05-21T07:30:38;99212.56;;;23.29
77414;BMP280;66486;49.992;19.164;2023-05-21T07:33:04;99212.31;;;23.38
77414;BMP280;66486;49.992;19.164;2023-05-21T07:35:30;99215.81;;;23.39
77414;BMP280;66486;49.992;19.164;2023-05-21T07:37:56;99212.59;;;23.41
77414;BMP280;66486;49.992;19.164;2023-05-21T07:40:22;99211.88;;;23.79
77414;BMP280;66486;49.992;19.164;2023-05-21T07:42:48;99217.41;;;23.84
77414;BMP280;66486;49.992;19.164;2023-05-21T07:45:14;99220.78;;;24.45
77414;BMP280;66486;49.992;19.164;2023-05-21T07:47:40;99223.38;;;23.94
77414;BMP280;66486;49.992;19.164;2023-05-21T07:50:06;99217.38;;;23.90
77414;BMP280;66486;49.992;19.164;2023-05-21T07:52:32;99210.63;;;23.69
77414;BMP280;66486;49.992;19.164;2023-05-21T07:54:59;99215.88;;;24.00
77414;BMP280;66486;49.992;19.164;2023-05-21T07:57:26;99210.84;;;24.26
77414;BMP280;66486;49.992;19.164;2023-05-21T07:59:52;99213.34;;;23.96
77414;BMP280;66486;49.992;19.164;2023-05-21T08:02:18;99217.16;;;23.99
77414;BMP280;66486;49.992;19.164;2023-05-21T08:04:44;99213.03;;;24.50
77414;BMP280;66486;49.992;19.164;2023-05-21T08:07:11;99200.41;;;24.82
77414;BMP280;66486;49.992;19.164;2023-05-21T08:09:38;99212.53;;;24.51
77414;BMP280;66486;49.992;19.164;2023-05-21T08:12:04;99206.41;;;24.86
77414;BMP280;66486;49.992;19.164;2023-05-21T08:14:30;99211.53;;;25.06
77414;BMP280;66486;49.992;19.164;2023-05-21T08:16:56;99224.19;;;24.74
77414;BMP280;66486;49.992;19.164;2023-05-21T08:19:23;99212.84;;;24.99
77414;BMP280;66486;49.992;19.164;2023-05-21T08:21:49;99213.31;;;25.03
77414;BMP280;66486;49.992;19.164;2023-05-21T08:24:15;99204.66;;;24.83
77414;BMP280;66486;49.992;19.164;2023-05-21T08:26:41;99205.69;;;25.20
77414;BMP280;66486;49.992;19.164;2023-05-21T08:29:09;99202.53;;;25.00
77414;BMP280;66486;49.992;19.164;2023-05-21T08:31:35;99200.66;;;25.24
77414;BMP280;66486;49.992;19.164;2023-05-21T08:34:01;99208.00;;;25.11
77414;BMP280;66486;49.992;19.164;2023-05-21T08:36:27;99204.22;;;24.62
77414;BMP280;66486;49.992;19.164;2023-05-21T08:38:53;99203.66;;;24.86
77414;BMP280;66486;49.992;19.164;2023-05-21T08:41:20;99186.19;;;24.72
77414;BMP280;66486;49.992;19.164;2023-05-21T08:43:54;99191.00;;;24.55
77414;BMP280;66486;49.992;19.164;2023-05-21T08:46:24;99194.19;;;24.76
77414;BMP280;66486;49.992;19.164;2023-05-21T08:48:53;99187.75;;;25.08
77414;BMP280;66486;49.992;19.164;2023-05-21T08:51:21;99195.66;;;25.88
77414;BMP280;66486;49.992;19.164;2023-05-21T08:53:49;99188.53;;;25.68
77414;BMP280;66486;49.992;19.164;2023-05-21T08:56:16;99189.09;;;25.91
77414;BMP280;66486;49.992;19.164;2023-05-21T08:58:45;99189.28;;;25.98
77414;BMP280;66486;49.992;19.164;2023-05-21T09:01:11;99176.16;;;25.56
77414;BMP280;66486;49.992;19.164;2023-05-21T09:03:39;99182.22;;;25.79
77414;BMP280;66486;49.992;19.164;2023-05-21T09:06:09;99183.41;;;25.53
77414;BMP280;66486;49.992;19.164;2023-05-21T09:08:38;99183.88;;;25.87
77414;BMP280;66486;49.992;19.164;2023-05-21T09:11:07;99179.84;;;25.88
77414;BMP280;66486;49.992;19.164;2023-05-21T09:13:35;99175.94;;;26.45
77414;BMP280;66486;49.992;19.164;2023-05-21T09:16:01;99180.97;;;26.84
77414;BMP280;66486;49.992;19.164;2023-05-21T09:18:27;99181.41;;;27.06
77414;BMP280;66486;49.992;19.164;2023-05-21T09:20:53;99183.44;;;27.06
77414;BMP280;66486;49.992;19.164;2023-05-21T09:23:21;99182.75;;;26.81
77414;BMP280;66486;49.992;19.164;2023-05-21T09:25:47;99183.53;;;26.63
77414;BMP280;66486;49.992;19.164;2023-05-21T09:28:15;99177.91;;;26.50
77414;BMP280;66486;49.992;19.164;2023-05-21T09:30:50;99179.16;;;26.49
77414;BMP280;66486;49.992;19.164;2023-05-21T09:33:25;99177.34;;;26.75
77414;BMP280;66486;49.992;19.164;2023-05-21T09:35:52;99172.84;;;27.10
77414;BMP280;66486;49.992;19.164;2023-05-21T09:38:21;99187.94;;;26.71
77414;BMP280;66486;49.992;19.164;2023-05-21T09:40:48;99175.44;;;26.46
77414;BMP280;66486;49.992;19.164;2023-05-21T09:43:14;99179.81;;;26.79
77414;BMP280;66486;49.992;19.164;2023-05-21T09:45:54;99168.53;;;26.77
77414;BMP280;66486;49.992;19.164;2023-05-21T09:48:34;99181.28;;;26.19
77414;BMP280;66486;49.992;19.164;2023-05-21T09:53:48;99183.63;;;26.57
77414;BMP280;66486;49.992;19.164;2023-05-21T09:56:16;99175.47;;;26.84
77414;BMP280;66486;49.992;19.164;2023-05-21T09:58:43;99168.47;;;27.14
77414;BMP280;66486;49.992;19.164;2023-05-21T10:01:09;99160.94;;;26.96
77414;BMP280;66486;49.992;19.164;2023-05-21T10:03:38;99171.06;;;26.56
77414;BMP280;66486;49.992;19.164;2023-05-21T10:06:07;99155.81;;;26.50
77414;BMP280;66486;49.992;19.164;2023-05-21T10:08:35;99153.09;;;27.00
77414;BMP280;66486;49.992;19.164;2023-05-21T10:11:04;99152.75;;;26.35
77414;BMP280;66486;49.992;19.164;2023-05-21T10:13:33;99156.31;;;26.30
77414;BMP280;66486;49.992;19.164;2023-05-21T10:16:04;99154.31;;;26.49
77414;BMP280;66486;49.992;19.164;2023-05-21T10:18:31;99146.25;;;26.32
77414;BMP280;66486;49.992;19.164;2023-05-21T10:20:59;99149.91;;;26.59
77414;BMP280;66486;49.992;19.164;2023-05-21T10:23:26;99138.44;;;26.36
77414;BMP280;66486;49.992;19.164;2023-05-21T10:25:52;99142.00;;;26.87
77414;BMP280;66486;49.992;19.164;2023-05-21T10:28:19;99141.75;;;27.04
77414;BMP280;66486;49.992;19.164;2023-05-21T10:30:46;99146.13;;;26.81
77414;BMP280;66486;49.992;19.164;2023-05-21T10:33:14;99142.84;;;26.63
77414;BMP280;66486;49.992;19.164;2023-05-21T10:35:41;99141.63;;;26.59
77414;BMP280;66486;49.992;19.164;2023-05-21T10:38:10;99128.84;;;26.93
77414;BMP280;66486;49.992;19.164;2023-05-21T10:40:38;99137.31;;;27.14
77414;BMP280;66486;49.992;19.164;2023-05-21T10:48:32;99133.16;;;27.65
77414;BMP280;66486;49.992;19.164;2023-05-21T10:59:41;99118.59;;;27.51
77414;BMP280;66486;49.992;19.164;2023-05-21T11:02:11;99119.47;;;27.59
77414;BMP280;66486;49.992;19.164;2023-05-21T11:04:37;99113.69;;;27.31
77414;BMP280;66486;49.992;19.164;2023-05-21T11:07:07;99123.91;;;27.05
77414;BMP280;66486;49.992;19.164;2023-05-21T11:09:32;99124.41;;;27.35
77414;BMP280;66486;49.992;19.164;2023-05-21T11:11:59;99116.56;;;27.07
77414;BMP280;66486;49.992;19.164;2023-05-21T11:16:53;99108.78;;;27.37
77414;BMP280;66486;49.992;19.164;2023-05-21T11:19:18;99109.25;;;27.54
77414;BMP280;66486;49.992;19.164;2023-05-21T11:21:50;99106.78;;;27.38
77414;BMP280;66486;49.992;19.164;2023-05-21T11:24:19;99106.66;;;27.43
77414;BMP280;66486;49.992;19.164;2023-05-21T11:29:19;99115.84;;;27.77
77414;BMP280;66486;49.992;19.164;2023-05-21T11:31:47;99102.97;;;27.09
77414;BMP280;66486;49.992;19.164;2023-05-21T11:34:21;99096.34;;;27.31
77414;BMP280;66486;49.992;19.164;2023-05-21T11:39:40;99090.47;;;26.90
77414;BMP280;66486;49.992;19.164;2023-05-21T11:42:06;99100.59;;;27.00
77414;BMP280;66486;49.992;19.164;2023-05-21T11:44:46;99091.66;;;27.26
77414;BMP280;66486;49.992;19.164;2023-05-21T11:47:14;99100.94;;;27.54
77414;BMP280;66486;49.992;19.164;2023-05-21T11:49:40;99097.69;;;27.24
77414;BMP280;66486;49.992;19.164;2023-05-21T11:52:09;99093.56;;;27.31
77414;BMP280;66486;49.992;19.164;2023-05-21T11:54:50;99092.53;;;27.60
77414;BMP280;66486;49.992;19.164;2023-05-21T11:57:20;99106.03;;;28.02
77414;BMP280;66486;49.992;19.164;2023-05-21T11:59:49;99094.16;;;27.81
77414;BMP280;66486;49.992;19.164;2023-05-21T12:02:18;99096.56;;;27.72
77414;BMP280;66486;49.992;19.164;2023-05-21T12:04:45;99090.31;;;27.84
77414;BMP280;66486;49.992;19.164;2023-05-21T12:07:14;99057.84;;;27.59
77414;BMP280;66486;49.992;19.164;2023-05-21T12:09:44;99087.09;;;27.41
77414;BMP280;66486;49.992;19.164;2023-05-21T12:12:15;99082.63;;;27.38
77414;BMP280;66486;49.992;19.164;2023-05-21T12:14:45;99084.84;;;27.40
77414;BMP280;66486;49.992;19.164;2023-05-21T12:17:15;99091.47;;;27.63
77414;BMP280;66486;49.992;19.164;2023-05-21T12:19:41;99079.53;;;27.29
77414;BMP280;66486;49.992;19.164;2023-05-21T12:22:08;99099.59;;;27.16
77414;BMP280;66486;49.992;19.164;2023-05-21T12:24:36;99096.22;;;27.36
77414;BMP280;66486;49.992;19.164;2023-05-21T12:27:04;99095.66;;;27.25
77414;BMP280;66486;49.992;19.164;2023-05-21T12:29:49;99093.34;;;27.29
77414;BMP280;66486;49.992;19.164;2023-05-21T12:32:16;99101.91;;;27.57
77414;BMP280;66486;49.992;19.164;2023-05-21T12:34:46;99099.03;;;27.49
77414;BMP280;66486;49.992;19.164;2023-05-21T12:37:21;99102.19;;;27.40
77414;BMP280;66486;49.992;19.164;2023-05-21T12:39:49;99097.69;;;27.24
77414;BMP280;66486;49.992;19.164;2023-05-21T12:42:16;99100.66;;;27.13
77414;BMP280;66486;49.992;19.164;2023-05-21T12:44:48;99090.94;;;27.07
77414;BMP280;66486;49.992;19.164;2023-05-21T12:47:17;99088.97;;;27.33
77414;BMP280;66486;49.992;19.164;2023-05-21T12:49:44;99076.56;;;27.27
77414;BMP280;66486;49.992;19.164;2023-05-21T12:52:17;99093.91;;;27.40
77414;BMP280;66486;49.992;19.164;2023-05-21T12:54:44;99092.75;;;27.04
77414;BMP280;66486;49.992;19.164;2023-05-21T12:57:15;99085.50;;;27.33
77414;BMP280;66486;49.992;19.164;2023-05-21T12:59:58;99084.22;;;26.89
77414;BMP280;66486;49.992;19.164;2023-05-21T13:02:26;99082.13;;;26.95
77414;BMP280;66486;49.992;19.164;2023-05-21T13:04:59;99069.34;;;27.24
77414;BMP280;66486;49.992;19.164;2023-05-21T13:07:28;99072.41;;;27.20
77414;BMP280;66486;49.992;19.164;2023-05-21T13:09:55;99070.72;;;27.43
77414;BMP280;66486;49.992;19.164;2023-05-21T13:12:22;99071.13;;;27.34
77414;BMP280;66486;49.992;19.164;2023-05-21T13:14:49;99066.06;;;26.94
77414;BMP280;66486;49.992;19.164;2023-05-21T13:17:17;99062.66;;;26.88
77414;BMP280;66486;49.992;19.164;2023-05-21T13:22:31;99065.13;;;27.04
77414;BMP280;66486;49.992;19.164;2023-05-21T13:24:56;99065.25;;;27.25
77414;BMP280;66486;49.992;19.164;2023-05-21T13:27:22;99062.19;;;26.84
77414;BMP280;66486;49.992;19.164;2023-05-21T13:29:48;99056.03;;;26.59
77414;BMP280;66486;49.992;19.164;2023-05-21T13:32:14;99062.34;;;26.91
77414;BMP280;66486;49.992;19.164;2023-05-21T13:34:40;99059.38;;;27.02
77414;BMP280;66486;49.992;19.164;2023-05-21T13:37:06;99051.94;;;27.10
77414;BMP280;66486;49.992;19.164;2023-05-21T13:39:32;99058.22;;;27.11
77414;BMP280;66486;49.992;19.164;2023-05-21T13:41:58;99064.44;;;27.17
77414;BMP280;66486;49.992;19.164;2023-05-21T13:44:24;99059.97;;;27.40
77414;BMP280;66486;49.992;19.164;2023-05-21T13:46:51;99059.28;;;27.08
77414;BMP280;66486;49.992;19.164;2023-05-21T13:49:16;99057.91;;;27.14
77414;BMP280;66486;49.992;19.164;2023-05-21T13:51:43;99062.81;;;27.08
77414;BMP280;66486;49.992;19.164;2023-05-21T13:54:08;99051.78;;;26.58
77414;BMP280;66486;49.992;19.164;2023-05-21T13:56:35;99061.28;;;26.94
77414;BMP280;66486;49.992;19.164;2023-05-21T13:59:00;99059.78;;;26.93
77414;BMP280;66486;49.992;19.164;2023-05-21T14:01:27;99058.34;;;26.73
77414;BMP280;66486;49.992;19.164;2023-05-21T14:03:52;99063.44;;;26.69
77414;BMP280;66486;49.992;19.164;2023-05-21T14:06:19;99055.13;;;27.01
77414;BMP280;66486;49.992;19.164;2023-05-21T14:08:44;99055.50;;;27.24
77414;BMP280;66486;49.992;19.164;2023-05-21T14:11:11;99062.31;;;27.36
77414;BMP280;66486;49.992;19.164;2023-05-21T14:13:36;99052.13;;;27.57
77414;BMP280;66486;49.992;19.164;2023-05-21T14:16:03;99048.72;;;27.51
77414;BMP280;66486;49.992;19.164;2023-05-21T14:18:29;99056.25;;;27.50
77414;BMP280;66486;49.992;19.164;2023-05-21T14:20:55;99053.38;;;27.30
77414;BMP280;66486;49.992;19.164;2023-05-21T14:23:21;99058.28;;;26.92
77414;BMP280;66486;49.992;19.164;2023-05-21T14:25:47;99056.50;;;26.95
77414;BMP280;66486;49.992;19.164;2023-05-21T14:28:13;99059.34;;;26.89